createdAt,value
2018-10-01T00:01:24.916Z,3.60
2018-10-01T00:03:52.593Z,3.13
2018-10-01T00:06:20.244Z,2.83
2018-10-01T00:08:47.909Z,3.70
2018-10-01T00:11:15.551Z,3.10
2018-10-01T00:13:43.472Z,3.20
2018-10-01T00:16:11.393Z,3.40
2018-10-01T00:18:39.284Z,3.03
2018-10-01T00:21:12.723Z,3.83
2018-10-01T00:23:40.372Z,3.37
2018-10-01T00:26:08.005Z,2.80
2018-10-01T00:28:35.700Z,3.20
2018-10-01T00:31:03.360Z,2.80
2018-10-01T00:33:31.077Z,2.97
2018-10-01T00:35:58.838Z,2.70
2018-10-01T00:38:26.937Z,2.93
2018-10-01T00:40:54.563Z,2.67
2018-10-01T00:43:22.262Z,3.20
2018-10-01T00:45:50.052Z,2.97
2018-10-01T00:48:18.037Z,3.23
2018-10-01T00:50:45.725Z,3.30
2018-10-01T00:53:13.370Z,3.20
2018-10-01T00:55:41.019Z,3.47
2018-10-01T00:58:08.724Z,3.30
2018-10-01T01:00:36.385Z,2.83
2018-10-01T01:03:04.044Z,2.80
2018-10-01T01:05:31.748Z,2.90
2018-10-01T01:07:59.466Z,3.30
2018-10-01T01:10:27.333Z,3.27
2018-10-01T01:12:55.016Z,3.90
2018-10-01T01:15:22.681Z,4.00
2018-10-01T01:17:50.366Z,3.90
2018-10-01T01:20:18.393Z,3.50
2018-10-01T01:22:46.317Z,3.30
2018-10-01T01:25:14.008Z,3.27
2018-10-01T01:27:41.921Z,3.43
2018-10-01T01:30:09.716Z,3.10
2018-10-01T01:32:37.380Z,3.40
2018-10-01T01:35:05.117Z,3.50
2018-10-01T01:37:32.792Z,3.30
2018-10-01T01:40:00.455Z,3.57
2018-10-01T01:42:28.361Z,4.10
2018-10-01T01:44:56.104Z,3.85
2018-10-01T01:47:23.769Z,5.20
2018-10-01T01:49:51.457Z,5.87
2018-10-01T01:52:19.149Z,6.57
2018-10-01T01:54:46.825Z,8.03
2018-10-01T01:57:14.468Z,7.60
2018-10-01T01:59:42.150Z,8.43
2018-10-01T02:02:09.811Z,7.50
2018-10-01T02:04:37.530Z,7.37
2018-10-01T02:07:05.204Z,7.93
2018-10-01T02:09:33.162Z,7.80
2018-10-01T02:12:00.786Z,7.37
2018-10-01T02:14:28.482Z,6.07
2018-10-01T02:16:56.157Z,8.00
2018-10-01T02:19:23.849Z,8.50
2018-10-01T02:21:51.542Z,7.03
2018-10-01T02:24:19.229Z,6.90
2018-10-01T02:26:46.856Z,6.43
2018-10-01T02:29:14.580Z,6.30
2018-10-01T02:31:42.217Z,6.17
2018-10-01T02:34:09.852Z,5.50
2018-10-01T02:36:37.572Z,5.93
2018-10-01T02:39:09.789Z,5.97
2018-10-01T02:41:37.478Z,6.13
2018-10-01T02:44:05.147Z,5.87
2018-10-01T02:46:32.813Z,5.87
2018-10-01T02:49:00.509Z,6.43
2018-10-01T02:51:28.284Z,6.80
2018-10-01T02:54:01.664Z,6.15
2018-10-01T02:56:29.332Z,5.53
2018-10-01T02:58:56.993Z,6.17
2018-10-01T03:01:24.640Z,6.10
2018-10-01T03:03:52.294Z,6.13
2018-10-01T03:06:20.045Z,6.07
2018-10-01T03:08:47.713Z,6.77
2018-10-01T03:11:15.369Z,6.23
2018-10-01T03:13:43.004Z,6.10
2018-10-01T03:16:10.668Z,5.23
2018-10-01T03:18:38.336Z,6.33
2018-10-01T03:21:06.037Z,5.00
2018-10-01T03:23:33.673Z,5.57
2018-10-01T03:26:01.340Z,5.77
2018-10-01T03:28:29.012Z,4.77
2018-10-01T03:30:56.752Z,4.50
2018-10-01T03:33:24.396Z,5.50
2018-10-01T03:35:52.097Z,5.37
2018-10-01T03:38:30.829Z,5.57
2018-10-01T03:40:58.796Z,5.53
2018-10-01T03:43:26.665Z,5.80
2018-10-01T03:45:54.311Z,6.27
2018-10-01T03:48:21.929Z,6.03
2018-10-01T03:50:49.664Z,5.58
2018-10-01T03:53:17.328Z,5.73
2018-10-01T03:55:44.946Z,5.80
2018-10-01T03:58:12.594Z,6.03
2018-10-01T04:00:40.216Z,4.97
2018-10-01T04:03:07.881Z,6.15
2018-10-01T04:05:35.492Z,6.60
2018-10-01T04:08:03.173Z,5.37
2018-10-01T04:10:30.835Z,5.77
2018-10-01T04:12:58.479Z,5.07
2018-10-01T04:15:26.187Z,6.90
2018-10-01T04:17:54.036Z,6.17
2018-10-01T04:20:21.673Z,5.47
2018-10-01T04:22:49.332Z,5.07
2018-10-01T04:25:17.237Z,5.00
2018-10-01T04:27:44.997Z,5.67
2018-10-01T04:30:12.667Z,5.10
2018-10-01T04:32:40.402Z,5.30
2018-10-01T04:35:08.212Z,6.93
2018-10-01T04:37:35.923Z,5.62
2018-10-01T04:40:03.721Z,11.90
2018-10-01T04:42:31.342Z,16.47
2018-10-01T04:44:58.977Z,10.93
2018-10-01T04:47:26.612Z,8.70
2018-10-01T04:49:54.241Z,6.97
2018-10-01T04:52:21.936Z,6.20
2018-10-01T04:54:50.104Z,6.83
2018-10-01T04:57:17.803Z,5.77
2018-10-01T04:59:45.424Z,5.87
2018-10-01T05:02:13.398Z,5.97
2018-10-01T05:04:41.025Z,6.20
2018-10-01T05:07:08.653Z,6.23
2018-10-01T05:09:36.330Z,6.00
2018-10-01T05:12:04.036Z,6.08
2018-10-01T05:14:31.700Z,5.90
2018-10-01T05:16:59.428Z,6.57
2018-10-01T05:19:27.075Z,7.50
2018-10-01T05:21:54.780Z,6.90
2018-10-01T05:24:22.412Z,6.67
2018-10-01T05:26:50.097Z,6.43
2018-10-01T05:29:17.840Z,7.13
2018-10-01T05:31:45.501Z,6.70
2018-10-01T05:34:13.124Z,6.57
2018-10-01T05:36:40.745Z,7.53
2018-10-01T05:39:10.260Z,6.73
2018-10-01T05:41:37.957Z,6.63
2018-10-01T05:44:05.684Z,6.60
2018-10-01T05:46:33.301Z,6.83
2018-10-01T05:49:01.028Z,9.10
2018-10-01T05:51:28.877Z,7.57
2018-10-01T05:53:56.581Z,11.37
2018-10-01T05:56:24.194Z,11.60
2018-10-01T05:58:51.860Z,13.30
2018-10-01T06:01:19.585Z,14.77
2018-10-01T06:03:47.271Z,13.50
2018-10-01T06:06:15.336Z,15.57
2018-10-01T06:08:43.156Z,16.83
2018-10-01T06:11:10.765Z,14.80
2018-10-01T06:13:38.471Z,16.97
2018-10-01T06:16:06.097Z,16.70
2018-10-01T06:18:33.712Z,16.30
2018-10-01T06:21:01.416Z,18.15
2018-10-01T06:23:29.308Z,16.77
2018-10-01T06:25:56.932Z,17.03
2018-10-01T06:28:24.587Z,15.17
2018-10-01T06:30:52.353Z,20.73
2018-10-01T06:33:19.966Z,18.80
2018-10-01T06:35:47.605Z,20.20
2018-10-01T06:38:15.224Z,17.33
2018-10-01T06:40:42.974Z,18.50
2018-10-01T06:43:10.637Z,19.00
2018-10-01T06:45:38.339Z,18.70
2018-10-01T06:48:05.717Z,17.70
2018-10-01T06:50:33.393Z,19.70
2018-10-01T06:53:00.996Z,19.90
2018-10-01T06:55:28.616Z,22.07
2018-10-01T06:57:56.269Z,20.80
2018-10-01T07:00:23.912Z,15.90
2018-10-01T07:02:51.536Z,18.63
2018-10-01T07:05:19.220Z,21.00
2018-10-01T07:07:46.893Z,20.33
2018-10-01T07:10:14.585Z,21.23
2018-10-01T07:12:42.191Z,20.30
2018-10-01T07:15:09.846Z,18.02
2018-10-01T07:17:37.506Z,17.27
2018-10-01T07:20:05.765Z,19.03
2018-10-01T07:22:33.569Z,16.67
2018-10-01T07:25:01.008Z,16.93
2018-10-01T07:27:28.653Z,16.87
2018-10-01T07:29:56.258Z,17.95
2018-10-01T07:32:23.906Z,20.95
2018-10-01T07:34:51.828Z,18.17
2018-10-01T07:37:19.491Z,16.67
2018-10-01T07:39:47.092Z,18.57
2018-10-01T07:42:14.712Z,15.93
2018-10-01T07:44:42.438Z,17.50
2018-10-01T07:47:10.049Z,19.70
2018-10-01T07:49:37.807Z,17.87
2018-10-01T07:52:05.618Z,20.52
2018-10-01T07:54:33.615Z,20.12
2018-10-01T07:57:01.226Z,20.95
2018-10-01T07:59:29.289Z,18.98
2018-10-01T08:01:56.940Z,19.17
2018-10-01T08:04:24.570Z,21.53
2018-10-01T08:06:52.218Z,18.45
2018-10-01T08:09:19.869Z,18.25
2018-10-01T08:11:47.664Z,19.57
2018-10-01T08:14:15.396Z,17.30
2018-10-01T08:16:43.014Z,20.05
2018-10-01T08:19:10.621Z,16.30
2018-10-01T08:21:38.374Z,18.42
2018-10-01T08:24:06.068Z,20.95
2018-10-01T08:26:33.780Z,19.82
2018-10-01T08:29:01.525Z,23.00
2018-10-01T08:31:29.180Z,21.97
2018-10-01T08:33:56.861Z,21.02
2018-10-01T08:36:24.741Z,19.20
2018-10-01T08:38:52.419Z,21.48
2018-10-01T08:41:20.082Z,18.90
2018-10-01T08:43:47.681Z,17.75
2018-10-01T08:46:15.378Z,21.65
2018-10-01T08:48:47.590Z,20.88
2018-10-01T08:51:25.015Z,19.70
2018-10-01T08:54:05.920Z,19.30
2018-10-01T08:56:33.816Z,18.37
2018-10-01T08:59:01.350Z,16.65
2018-10-01T09:01:29.404Z,17.20
2018-10-01T09:03:57.073Z,18.87
2018-10-01T09:06:25.040Z,18.27
2018-10-01T09:08:52.721Z,17.27
2018-10-01T09:11:20.677Z,20.05
2018-10-01T09:13:48.440Z,18.98
2018-10-01T09:16:16.100Z,17.47
2018-10-01T09:18:43.732Z,16.82
2018-10-01T09:21:11.329Z,16.37
2018-10-01T09:23:38.952Z,19.32
2018-10-01T09:26:06.708Z,17.10
2018-10-01T09:28:34.340Z,15.72
2018-10-01T09:31:02.219Z,19.00
2018-10-01T09:33:29.786Z,18.70
2018-10-01T09:35:57.806Z,16.40
2018-10-01T09:38:25.500Z,16.67
2018-10-01T09:40:53.173Z,18.10
2018-10-01T09:43:20.793Z,15.45
2018-10-01T09:45:48.420Z,14.25
2018-10-01T09:48:15.991Z,16.10
2018-10-01T09:50:43.634Z,14.75
2018-10-01T09:53:11.288Z,16.00
2018-10-01T09:55:39.021Z,14.60
2018-10-01T09:58:06.658Z,15.72
2018-10-01T10:00:40.037Z,15.30
2018-10-01T10:03:08.312Z,13.48
2018-10-01T10:05:36.021Z,14.40
2018-10-01T10:08:03.902Z,15.65
2018-10-01T10:10:31.554Z,15.10
2018-10-01T10:12:59.174Z,12.37
2018-10-01T10:15:26.942Z,12.00
2018-10-01T10:17:54.587Z,11.30
2018-10-01T10:20:22.251Z,10.38
2018-10-01T10:22:50.005Z,10.60
2018-10-01T10:25:17.794Z,12.47
2018-10-01T10:27:45.405Z,11.73
2018-10-01T10:30:13.133Z,11.15
2018-10-01T10:32:40.810Z,11.33
2018-10-01T10:35:08.553Z,12.43
2018-10-01T10:37:36.293Z,10.20
2018-10-01T10:40:04.315Z,10.13
2018-10-01T10:42:32.036Z,9.23
2018-10-01T10:44:59.649Z,9.15
2018-10-01T10:47:27.284Z,7.53
2018-10-01T10:49:55.166Z,9.75
2018-10-01T10:52:22.843Z,9.43
2018-10-01T10:54:50.581Z,9.53
2018-10-01T10:57:18.255Z,7.08
2018-10-01T10:59:45.904Z,8.00
2018-10-01T11:02:13.693Z,7.78
2018-10-01T11:04:41.233Z,7.35
2018-10-01T11:07:08.909Z,7.62
2018-10-01T11:09:36.581Z,7.03
2018-10-01T11:12:04.220Z,6.90
2018-10-01T11:14:31.940Z,6.47
2018-10-01T11:16:59.563Z,6.67
2018-10-01T11:19:27.264Z,6.40
2018-10-01T11:21:54.984Z,6.58
2018-10-01T11:24:22.600Z,5.97
2018-10-01T11:26:50.411Z,6.22
2018-10-01T11:29:18.114Z,6.35
2018-10-01T11:31:47.056Z,6.35
2018-10-01T11:34:14.586Z,6.20
2018-10-01T11:36:42.575Z,5.55
2018-10-01T11:39:11.924Z,5.85
2018-10-01T11:41:39.609Z,5.80
2018-10-01T11:44:07.367Z,6.75
2018-10-01T11:46:35.112Z,5.53
2018-10-01T11:49:02.777Z,6.37
2018-10-01T11:51:30.483Z,6.00
2018-10-01T11:53:58.245Z,5.72
2018-10-01T11:56:25.958Z,5.50
2018-10-01T11:58:53.600Z,4.75
2018-10-01T12:01:21.300Z,5.40
2018-10-01T12:03:49.005Z,5.17
2018-10-01T12:06:16.721Z,5.30
2018-10-01T12:08:44.848Z,4.87
2018-10-01T12:11:12.663Z,4.77
2018-10-01T12:13:40.325Z,4.17
2018-10-01T12:16:08.415Z,4.20
2018-10-01T12:18:35.790Z,4.72
2018-10-01T12:21:03.608Z,4.17
2018-10-01T12:23:31.229Z,3.60
2018-10-01T12:25:58.910Z,5.03
2018-10-01T12:28:26.536Z,4.83
2018-10-01T12:30:54.258Z,5.10
2018-10-01T12:33:22.108Z,4.25
2018-10-01T12:35:49.727Z,4.80
2018-10-01T12:38:17.409Z,4.07
2018-10-01T12:40:45.120Z,4.10
2018-10-01T12:43:12.922Z,3.90
2018-10-01T12:45:40.650Z,4.05
2018-10-01T12:48:09.654Z,3.00
2018-10-01T12:50:37.450Z,3.05
2018-10-01T12:53:05.107Z,3.60
2018-10-01T12:55:32.765Z,3.80
2018-10-01T12:58:00.473Z,2.95
2018-10-01T13:00:28.107Z,3.52
2018-10-01T13:02:55.770Z,3.42
2018-10-01T13:05:23.474Z,3.40
2018-10-01T13:07:51.088Z,3.25
2018-10-01T13:10:18.790Z,3.20
2018-10-01T13:12:46.474Z,3.02
2018-10-01T13:15:14.097Z,2.83
2018-10-01T13:17:41.713Z,2.70
2018-10-01T13:20:09.616Z,2.80
2018-10-01T13:22:37.288Z,3.22
2018-10-01T13:25:05.194Z,2.80
2018-10-01T13:27:32.776Z,2.85
2018-10-01T13:30:00.467Z,2.62
2018-10-01T13:32:28.080Z,2.67
2018-10-01T13:34:55.689Z,2.72
2018-10-01T13:37:23.383Z,2.90
2018-10-01T13:39:51.040Z,2.52
2018-10-01T13:42:18.756Z,2.50
2018-10-01T13:44:46.401Z,2.60
2018-10-01T13:47:14.125Z,2.50
2018-10-01T13:49:41.753Z,2.42
2018-10-01T13:52:09.898Z,2.87
2018-10-01T13:54:37.870Z,2.77
2018-10-01T13:57:05.577Z,2.87
2018-10-01T13:59:33.202Z,2.60
2018-10-01T14:02:01.161Z,2.47
2018-10-01T14:04:28.812Z,2.87
2018-10-01T14:06:56.527Z,2.72
2018-10-01T14:09:24.220Z,2.62
2018-10-01T14:11:52.056Z,3.30
2018-10-01T14:14:19.710Z,2.27
2018-10-01T14:16:47.348Z,2.70
2018-10-01T14:19:15.115Z,2.80
2018-10-01T14:21:42.654Z,2.80
2018-10-01T14:24:10.358Z,2.53
2018-10-01T14:26:38.017Z,2.77
2018-10-01T14:29:05.831Z,2.80
2018-10-01T14:31:33.460Z,2.87
2018-10-01T14:34:01.078Z,2.70
2018-10-01T14:36:28.741Z,2.70
2018-10-01T14:38:56.465Z,2.45
2018-10-01T14:41:24.176Z,2.62
2018-10-01T14:43:51.861Z,2.80
2018-10-01T14:46:19.513Z,2.40
2018-10-01T14:48:47.197Z,3.42
2018-10-01T14:51:14.837Z,3.17
2018-10-01T14:53:42.702Z,2.62
2018-10-01T14:56:10.354Z,2.10
2018-10-01T14:58:38.016Z,1.98
2018-10-01T15:01:05.696Z,2.80
2018-10-01T15:03:33.362Z,2.70
2018-10-01T15:06:01.076Z,2.70
2018-10-01T15:08:28.812Z,2.40
2018-10-01T15:10:56.612Z,2.40
2018-10-01T15:13:24.164Z,2.10
2018-10-01T15:15:51.831Z,1.90
2018-10-01T15:18:19.591Z,2.10
2018-10-01T15:20:47.261Z,2.40
2018-10-01T15:23:14.876Z,2.17
2018-10-01T15:25:42.516Z,2.40
2018-10-01T15:28:10.453Z,2.87
2018-10-01T15:30:38.169Z,2.30
2018-10-01T15:33:05.913Z,2.55
2018-10-01T15:35:33.526Z,2.70
2018-10-01T15:38:01.229Z,2.42
2018-10-01T15:40:28.911Z,3.25
2018-10-01T15:42:56.710Z,3.10
2018-10-01T15:45:24.528Z,2.92
2018-10-01T15:47:52.244Z,2.40
2018-10-01T15:50:19.896Z,2.90
2018-10-01T15:52:47.537Z,3.30
2018-10-01T15:55:15.180Z,3.20
2018-10-01T15:57:42.852Z,3.30
2018-10-01T16:00:10.484Z,2.52
2018-10-01T16:02:38.225Z,2.90
2018-10-01T16:05:06.232Z,2.72
2018-10-01T16:07:34.056Z,2.77
2018-10-01T16:10:01.737Z,2.60
2018-10-01T16:12:29.518Z,2.50
2018-10-01T16:14:57.197Z,2.67
2018-10-01T16:17:25.030Z,2.55
2018-10-01T16:19:52.677Z,2.62
2018-10-01T16:24:53.586Z,2.70
2018-10-01T16:27:21.288Z,2.45
2018-10-01T16:29:48.913Z,2.50
2018-10-01T16:32:16.620Z,2.25
2018-10-01T16:34:44.264Z,2.40
2018-10-01T16:37:12.040Z,2.55
2018-10-01T16:39:39.668Z,2.65
2018-10-01T16:42:07.344Z,2.17
2018-10-01T16:44:34.993Z,2.67
2018-10-01T16:47:02.650Z,2.60
2018-10-01T16:49:30.324Z,2.83
2018-10-01T16:51:58.700Z,2.70
2018-10-01T16:54:26.349Z,2.67
2018-10-01T16:56:54.253Z,2.37
2018-10-01T16:59:21.926Z,2.30
2018-10-01T17:01:49.854Z,2.70
2018-10-01T17:04:17.576Z,2.85
2018-10-01T17:06:45.229Z,2.93
2018-10-01T17:09:12.877Z,2.70
2018-10-01T17:11:40.495Z,2.70
2018-10-01T17:14:08.297Z,2.67
2018-10-01T17:16:35.923Z,2.20
2018-10-01T17:19:04.204Z,2.37
2018-10-01T17:21:31.856Z,2.10
2018-10-01T17:23:59.522Z,2.30
2018-10-01T17:28:54.750Z,2.83
2018-10-01T17:31:22.416Z,3.30
2018-10-01T17:33:50.371Z,3.20
2018-10-01T17:36:17.985Z,3.17
2018-10-01T17:38:45.684Z,3.30
2018-10-01T17:41:13.296Z,2.90
2018-10-01T17:43:40.924Z,3.27
2018-10-01T17:46:08.620Z,3.03
2018-10-01T17:48:36.276Z,3.83
2018-10-01T17:51:03.905Z,4.33
2018-10-01T17:53:32.051Z,3.87
2018-10-01T17:55:59.792Z,3.80
2018-10-01T17:58:27.654Z,3.00
2018-10-01T18:00:55.305Z,2.90
2018-10-01T18:03:22.952Z,3.20
2018-10-01T18:05:50.692Z,3.20
2018-10-01T18:08:18.351Z,2.90
2018-10-01T18:10:46.040Z,3.47
2018-10-01T18:13:13.723Z,3.23
2018-10-01T18:15:41.413Z,2.40
2018-10-01T18:18:09.045Z,2.23
2018-10-01T18:20:36.668Z,2.10
2018-10-01T18:23:04.333Z,2.00
2018-10-01T18:25:31.933Z,2.00
2018-10-01T18:27:59.559Z,2.27
2018-10-01T18:30:27.261Z,2.20
2018-10-01T18:32:54.808Z,2.33
2018-10-01T18:35:22.427Z,2.10
2018-10-01T18:37:50.050Z,2.20
2018-10-01T18:40:17.709Z,1.80
2018-10-01T18:42:45.396Z,2.13
2018-10-01T18:45:13.020Z,1.67
2018-10-01T18:47:40.626Z,1.70
2018-10-01T18:50:08.302Z,1.60
2018-10-01T18:52:35.928Z,2.10
2018-10-01T18:55:03.663Z,1.70
2018-10-01T18:57:31.336Z,1.80
2018-10-01T18:59:59.017Z,1.60
2018-10-01T19:02:26.580Z,1.70
2018-10-01T19:04:54.232Z,1.70
2018-10-01T19:07:21.853Z,1.73
2018-10-01T19:09:49.493Z,2.27
2018-10-01T19:12:17.102Z,2.93
2018-10-01T19:14:44.845Z,2.77
2018-10-01T19:17:12.492Z,2.70
2018-10-01T19:19:40.100Z,2.90
2018-10-01T19:22:07.760Z,2.70
2018-10-01T19:24:35.427Z,2.87
2018-10-01T19:27:03.071Z,2.70
2018-10-01T19:29:30.869Z,3.10
2018-10-01T19:31:58.541Z,3.37
2018-10-01T19:34:26.211Z,3.10
2018-10-01T19:36:53.904Z,3.10
2018-10-01T19:39:21.653Z,3.73
2018-10-01T19:41:49.215Z,3.60
2018-10-01T19:44:16.828Z,3.23
2018-10-01T19:46:44.598Z,3.07
2018-10-01T19:49:12.219Z,2.60
2018-10-01T19:51:39.955Z,3.83
2018-10-01T19:54:08.381Z,3.30
2018-10-01T19:56:36.128Z,3.40
2018-10-01T19:59:03.847Z,2.60
2018-10-01T20:01:31.734Z,2.57
2018-10-01T20:03:59.467Z,2.33
2018-10-01T20:06:27.109Z,2.10
2018-10-01T20:08:54.875Z,2.17
2018-10-01T20:11:22.633Z,2.10
2018-10-01T20:13:50.196Z,2.17
2018-10-01T20:16:17.808Z,2.00
2018-10-01T20:18:45.424Z,1.70
2018-10-01T20:21:13.098Z,1.63
2018-10-01T20:23:40.856Z,2.00
2018-10-01T20:26:08.596Z,2.00
2018-10-01T20:28:36.478Z,1.60
2018-10-01T20:31:04.666Z,1.70
2018-10-01T20:33:32.267Z,2.10
2018-10-01T20:36:00.197Z,1.90
2018-10-01T20:38:27.849Z,2.10
2018-10-01T20:40:55.521Z,2.20
2018-10-01T20:43:23.133Z,2.30
2018-10-01T20:45:51.244Z,2.70
2018-10-01T20:48:18.992Z,2.17
2018-10-01T20:50:46.600Z,2.33
2018-10-01T20:53:14.253Z,2.07
2018-10-01T20:55:41.932Z,2.60
2018-10-01T20:58:09.606Z,2.13
2018-10-01T21:00:37.252Z,2.40
2018-10-01T21:03:05.149Z,2.60
2018-10-01T21:05:32.855Z,3.47
2018-10-01T21:10:34.728Z,3.10
2018-10-01T21:13:02.643Z,3.03
2018-10-01T21:15:35.618Z,3.10
2018-10-01T21:18:03.376Z,2.83
2018-10-01T21:20:31.386Z,2.77
2018-10-01T21:22:59.483Z,3.60
2018-10-01T21:25:27.119Z,4.27
2018-10-01T21:27:54.720Z,4.87
2018-10-01T21:30:22.607Z,5.07
2018-10-01T21:32:50.270Z,4.60
2018-10-01T21:35:18.002Z,5.20
2018-10-01T21:37:45.698Z,4.30
2018-10-01T21:40:14.481Z,4.03
2018-10-01T21:42:42.288Z,3.97
2018-10-01T21:45:11.309Z,3.30
2018-10-01T21:47:38.981Z,3.67
2018-10-01T21:50:06.689Z,3.90
2018-10-01T21:52:34.322Z,4.30
2018-10-01T21:55:01.975Z,3.77
2018-10-01T21:57:29.794Z,3.40
2018-10-01T21:59:57.514Z,3.57
2018-10-01T22:02:25.246Z,3.50
2018-10-01T22:04:52.877Z,3.43
2018-10-01T22:07:20.502Z,3.10
2018-10-01T22:09:48.640Z,3.10
2018-10-01T22:12:16.291Z,2.70
2018-10-01T22:14:43.948Z,2.80
2018-10-01T22:17:11.714Z,2.70
2018-10-01T22:19:39.530Z,2.80
2018-10-01T22:22:07.370Z,2.50
2018-10-01T22:24:35.049Z,2.90
2018-10-01T22:27:02.861Z,2.43
2018-10-01T22:29:30.474Z,2.33
2018-10-01T22:31:58.213Z,2.23
2018-10-01T22:34:25.889Z,2.07
2018-10-01T22:36:53.700Z,2.30
2018-10-01T22:39:21.651Z,2.17
2018-10-01T22:41:49.361Z,2.13
2018-10-01T22:44:17.033Z,1.60
2018-10-01T22:46:44.868Z,2.03
2018-10-01T22:49:12.612Z,1.87
2018-10-01T22:51:40.298Z,1.97
2018-10-01T22:54:08.022Z,1.90
2018-10-01T22:56:35.957Z,1.90
2018-10-01T22:59:03.721Z,1.70
2018-10-01T23:01:31.417Z,1.77
2018-10-01T23:03:59.150Z,2.10
2018-10-01T23:06:26.943Z,1.97
2018-10-01T23:08:54.657Z,1.63
2018-10-01T23:11:22.365Z,2.00
2018-10-01T23:13:50.012Z,2.30
2018-10-01T23:16:17.934Z,2.50
2018-10-01T23:18:45.624Z,2.20
2018-10-01T23:21:13.288Z,2.60
2018-10-01T23:23:40.969Z,2.10
2018-10-01T23:26:08.680Z,2.30
2018-10-01T23:28:36.430Z,2.47
2018-10-01T23:31:04.237Z,2.33
2018-10-01T23:33:31.907Z,2.40
2018-10-01T23:35:59.596Z,2.10
2018-10-01T23:38:27.370Z,2.37
2018-10-01T23:40:55.099Z,2.60
2018-10-01T23:43:22.904Z,2.20
2018-10-01T23:45:50.612Z,2.40
2018-10-01T23:48:18.309Z,2.60
2018-10-01T23:50:45.959Z,2.70
2018-10-01T23:53:13.641Z,3.37
2018-10-01T23:55:41.333Z,3.23
2018-10-01T23:58:09.097Z,3.43
